Mercury — 3FFC7 — position and weather

sailwx.info

Track history (hours):
 
Tides and Currents Weather Stations Pressure Air Temp Water Temp Dewpoint Dewpoint Depression Visibility Wind Speed Wind Dir Waves Ship Positions

Mercury

Operator: Royal Caribbean Cruises Ltd

Last reported at 2019-Apr-08 08:40 UTC. Time now 2019-Apr-24 22:00 UTC.
Position N 01°18' E 103°19'.
Warning: this ship's position is 16 days out of date.

Length 199 m; draft 8.6 m.

Type: Cargo ship. MMSI: 371862000.

Date/timePositionNaut miles runAvg speedWind from/ knotsBaromVisibWave heightAir tempDewpointWater temp
2019-Apr-08 08:40N 01°18' E 103°19'317.2
2019-Apr-08 08:30N 01°17' E 103°21'816.2
2019-Apr-08 08:00N 01°14' E 103°29'815.4
2019-Apr-08 07:30N 01°12' E 103°36'713.8
2019-Apr-08 07:00N 01°09' E 103°42'713.3
2019-Apr-08 06:31N 01°11' E 103°49'4 8.6
2019-Apr-08 06:00N 01°14' E 103°52'2 3.7
2019-Apr-08 05:28N 01°16' E 103°51'0 0.0
2019-Apr-08 04:58N 01°16' E 103°51'0 0.0
2019-Apr-08 04:28N 01°16' E 103°51'0 0.0
2019-Apr-08 03:58N 01°16' E 103°51'0 0.0
2019-Apr-08 03:28N 01°16' E 103°51'0 0.0
2019-Apr-08 02:55N 01°16' E 103°51'0 0.0
2019-Apr-08 02:28N 01°16' E 103°51'0 0.0
2019-Apr-08 01:58N 01°16' E 103°51'0 0.0
2019-Apr-08 01:25N 01°16' E 103°51'0 0.0
2019-Apr-08 00:58N 01°16' E 103°51'0 0.0
2019-Apr-08 00:28N 01°16' E 103°51'0 0.0
2019-Apr-07 23:58N 01°16' E 103°51'0 0.0
2019-Apr-07 23:28N 01°16' E 103°51'0 0.0
2019-Apr-07 22:55N 01°16' E 103°51'0 0.0
2019-Apr-07 22:28N 01°16' E 103°51'0 0.0
2019-Apr-07 21:58N 01°16' E 103°51'0 0.0
2019-Apr-07 21:28N 01°16' E 103°51'0 0.0
2019-Apr-07 20:58N 01°16' E 103°51'0 0.0
2019-Apr-07 20:28N 01°16' E 103°51'0 0.0
2019-Apr-07 19:55N 01°16' E 103°51'0 0.0
2019-Apr-07 19:28N 01°16' E 103°51'0 0.0
2019-Apr-07 18:55N 01°16' E 103°51'0 0.0
2019-Apr-07 18:28N 01°16' E 103°51'0 0.0
2019-Apr-07 17:58N 01°16' E 103°51'0 0.0
2019-Apr-07 17:25N 01°16' E 103°51'0 0.0
2019-Apr-07 16:58N 01°16' E 103°51'0 0.0
2019-Apr-07 16:28N 01°16' E 103°51'0 0.0
2019-Apr-07 15:58N 01°16' E 103°51'0 0.0
2019-Apr-07 15:28N 01°16' E 103°51'0 0.0
2019-Apr-07 14:55N 01°16' E 103°51'0 0.0
2019-Apr-07 14:28N 01°16' E 103°51'0 0.0
2019-Apr-07 13:58N 01°16' E 103°51'0 0.0
2019-Apr-07 13:25N 01°16' E 103°51'0 0.0
2019-Apr-07 12:58N 01°16' E 103°51'0 0.0
2019-Apr-07 12:28N 01°16' E 103°51'0 0.0
2019-Apr-07 11:58N 01°16' E 103°51'0 0.0
2019-Apr-07 11:28N 01°16' E 103°51'0 0.0
2019-Apr-07 10:58N 01°16' E 103°51'0 0.0
2019-Apr-07 10:28N 01°16' E 103°51'0 0.0
2019-Apr-07 09:58N 01°16' E 103°51'0 0.0
2019-Apr-07 09:28N 01°16' E 103°51'0 0.0
2019-Apr-07 08:58N 01°16' E 103°51'0 0.7
2019-Apr-07 08:31N 01°16' E 103°51'2 4.2
2019-Apr-07 08:00N 01°14' E 103°53'2 4.7
2019-Apr-07 07:30N 01°14' E 103°55'3 5.4
2019-Apr-07 07:00N 01°15' E 103°58'5 9.4
2019-Apr-07 06:30N 01°16' E 104°02'510.1
2019-Apr-07 06:00N 01°16' E 104°07'611.3
2019-Apr-07 05:30N 01°17' E 104°13'911.9
2019-Apr-07 04:43N 01°21' E 104°22'  
Track history (hours):
 
Tides and Currents Weather Stations Pressure Air Temp Water Temp Dewpoint Dewpoint Depression Visibility Wind Speed Wind Dir Waves Ship Positions

Mercury

Operator: Royal Caribbean Cruises Ltd

Last reported at 2019-Apr-08 08:40 UTC. Time now 2019-Apr-24 22:00 UTC.
Position N 01°18' E 103°19'.
Warning: this ship's position is 16 days out of date.

Length 199 m; draft 8.6 m.

Type: Cargo ship. MMSI: 371862000.

Date/timePositionNaut miles runAvg speedWind from/ knotsBaromVisibWave heightAir tempDewpointWater temp
2019-Apr-08 08:40N 01°18' E 103°19'317.2
2019-Apr-08 08:30N 01°17' E 103°21'816.2
2019-Apr-08 08:00N 01°14' E 103°29'815.4
2019-Apr-08 07:30N 01°12' E 103°36'713.8
2019-Apr-08 07:00N 01°09' E 103°42'713.3
2019-Apr-08 06:31N 01°11' E 103°49'4 8.6
2019-Apr-08 06:00N 01°14' E 103°52'2 3.7
2019-Apr-08 05:28N 01°16' E 103°51'0 0.0
2019-Apr-08 04:58N 01°16' E 103°51'0 0.0
2019-Apr-08 04:28N 01°16' E 103°51'0 0.0
2019-Apr-08 03:58N 01°16' E 103°51'0 0.0
2019-Apr-08 03:28N 01°16' E 103°51'0 0.0
2019-Apr-08 02:55N 01°16' E 103°51'0 0.0
2019-Apr-08 02:28N 01°16' E 103°51'0 0.0
2019-Apr-08 01:58N 01°16' E 103°51'0 0.0
2019-Apr-08 01:25N 01°16' E 103°51'0 0.0
2019-Apr-08 00:58N 01°16' E 103°51'0 0.0
2019-Apr-08 00:28N 01°16' E 103°51'0 0.0
2019-Apr-07 23:58N 01°16' E 103°51'0 0.0
2019-Apr-07 23:28N 01°16' E 103°51'0 0.0
2019-Apr-07 22:55N 01°16' E 103°51'0 0.0
2019-Apr-07 22:28N 01°16' E 103°51'0 0.0
2019-Apr-07 21:58N 01°16' E 103°51'0 0.0
2019-Apr-07 21:28N 01°16' E 103°51'0 0.0
2019-Apr-07 20:58N 01°16' E 103°51'0 0.0
2019-Apr-07 20:28N 01°16' E 103°51'0 0.0
2019-Apr-07 19:55N 01°16' E 103°51'0 0.0
2019-Apr-07 19:28N 01°16' E 103°51'0 0.0
2019-Apr-07 18:55N 01°16' E 103°51'0 0.0
2019-Apr-07 18:28N 01°16' E 103°51'0 0.0
2019-Apr-07 17:58N 01°16' E 103°51'0 0.0
2019-Apr-07 17:25N 01°16' E 103°51'0 0.0
2019-Apr-07 16:58N 01°16' E 103°51'0 0.0
2019-Apr-07 16:28N 01°16' E 103°51'0 0.0
2019-Apr-07 15:58N 01°16' E 103°51'0 0.0
2019-Apr-07 15:28N 01°16' E 103°51'0 0.0
2019-Apr-07 14:55N 01°16' E 103°51'0 0.0
2019-Apr-07 14:28N 01°16' E 103°51'0 0.0
2019-Apr-07 13:58N 01°16' E 103°51'0 0.0
2019-Apr-07 13:25N 01°16' E 103°51'0 0.0
2019-Apr-07 12:58N 01°16' E 103°51'0 0.0
2019-Apr-07 12:28N 01°16' E 103°51'0 0.0
2019-Apr-07 11:58N 01°16' E 103°51'0 0.0
2019-Apr-07 11:28N 01°16' E 103°51'0 0.0
2019-Apr-07 10:58N 01°16' E 103°51'0 0.0
2019-Apr-07 10:28N 01°16' E 103°51'0 0.0
2019-Apr-07 09:58N 01°16' E 103°51'0 0.0
2019-Apr-07 09:28N 01°16' E 103°51'0 0.0
2019-Apr-07 08:58N 01°16' E 103°51'0 0.7
2019-Apr-07 08:31N 01°16' E 103°51'2 4.2
2019-Apr-07 08:00N 01°14' E 103°53'2 4.7
2019-Apr-07 07:30N 01°14' E 103°55'3 5.4
2019-Apr-07 07:00N 01°15' E 103°58'5 9.4
2019-Apr-07 06:30N 01°16' E 104°02'510.1
2019-Apr-07 06:00N 01°16' E 104°07'611.3
2019-Apr-07 05:30N 01°17' E 104°13'911.9
2019-Apr-07 04:43N 01°21' E 104°22'  

Dump ship's entire track history